Accueil
METAR-TAF:

METAR-TAF

Aéroports :

Tanna, Vanuatu

latitude: 19-27-18S, longitude: 169-13-26E, altitude: 6 m

Observation

Le bulletin a été fait il y a 43 minutes, à 09:00 UTC
Vent 2 kt de direction variable
Température 25°C
Humidité 89%
Pression 1007 hPa
Visibilité 10 km ou plus
Nuages épars à une hauteur de 2000 ft

METAR: NVVW 240900Z VRB02KT 9999 SCT020 25/23 Q1007 RMK NIL

Heure: 20:43 (09:43 UTC)

Prévision

Le bulletin a été fait il y a 5 heures et 13 minutes, à 04:30 UTC
Prévision valable du 24 à 06 UTC au 25 à 06 UTC
Vent 10 kt de est/sud-est
Visibilité: 8000 m
Nuages épars à une hauteur de 2000 ft
Nuages fragmentés à une hauteur de 1800 ft
averses de pluie

TAF: NVVW 240430Z 2406/2506 12010KT 9999 SCT020 INTER 2406/2412 8000 SHRA BKN018

Observations et prévisions météorologiques de plus de 4000 aéroports (messages METAR et TAF).

Les stations disponibles sont représentées par des disques jaunes et rouges sur la carte.

Passer la souris dessus pour voir le nom de la station.

Cliquer dessus pour voir les observations et prévisions météorologiques.

Pour changer de carte: cliquez sur les boutons verts avec une croix noire pour zoomer, sur le bouton vert avec un tiret pour effectuer un zoom arrière, ou sur les flèches vertes pour les cartes adjacentes.


METAR-TAF: